createdAt,value
2019-01-14T00:01:01.269Z,0.80
2019-01-14T00:03:29.161Z,0.80
2019-01-14T00:05:58.081Z,0.80
2019-01-14T00:08:26.270Z,0.70
2019-01-14T00:10:53.954Z,0.60
2019-01-14T00:13:21.708Z,0.70
2019-01-14T00:15:50.643Z,0.70
2019-01-14T00:18:18.280Z,0.70
2019-01-14T00:20:45.975Z,0.60
2019-01-14T00:23:13.753Z,0.60
2019-01-14T00:25:41.391Z,0.80
2019-01-14T00:28:09.526Z,0.70
2019-01-14T00:30:37.122Z,0.70
2019-01-14T00:33:06.232Z,0.80
2019-01-14T00:35:33.810Z,0.70
2019-01-14T00:38:01.469Z,0.60
2019-01-14T00:40:29.765Z,0.80
2019-01-14T00:42:57.458Z,0.93
2019-01-14T00:45:25.072Z,0.70
2019-01-14T00:47:52.930Z,0.53
2019-01-14T00:50:20.624Z,0.70
2019-01-14T00:52:48.276Z,0.60
2019-01-14T00:55:15.954Z,0.73
2019-01-14T00:57:43.687Z,0.60
2019-01-14T01:00:14.855Z,0.70
2019-01-14T01:02:42.573Z,0.40
2019-01-14T01:05:10.637Z,0.43
2019-01-14T01:07:38.221Z,0.70
2019-01-14T01:10:06.942Z,0.50
2019-01-14T01:12:34.717Z,0.70
2019-01-14T01:15:03.862Z,0.50
2019-01-14T01:17:31.620Z,0.70
2019-01-14T01:19:59.447Z,0.90
2019-01-14T01:22:30.150Z,0.60
2019-01-14T01:24:57.779Z,0.67
2019-01-14T01:27:25.404Z,0.70
2019-01-14T01:29:53.144Z,0.60
2019-01-14T01:32:20.797Z,0.57
2019-01-14T01:34:48.405Z,0.57
2019-01-14T01:37:16.911Z,0.70
2019-01-14T01:39:44.728Z,0.67
2019-01-14T01:42:14.413Z,0.40
2019-01-14T01:44:41.845Z,0.50
2019-01-14T01:47:09.449Z,0.43
2019-01-14T01:49:37.053Z,0.50
2019-01-14T01:52:05.009Z,0.70
2019-01-14T01:54:32.871Z,0.70
2019-01-14T01:57:00.420Z,0.80
2019-01-14T01:59:28.076Z,0.53
2019-01-14T02:01:55.714Z,0.70
2019-01-14T02:04:23.316Z,0.50
2019-01-14T02:06:50.978Z,0.60
2019-01-14T02:09:18.684Z,0.50
2019-01-14T02:11:46.365Z,0.43
2019-01-14T02:14:14.145Z,0.50
2019-01-14T02:16:42.537Z,0.57
2019-01-14T02:19:10.084Z,0.50
2019-01-14T02:21:37.708Z,0.40
2019-01-14T02:24:05.305Z,0.60
2019-01-14T02:26:33.282Z,0.60
2019-01-14T02:29:01.207Z,0.70
2019-01-14T02:31:28.850Z,0.60
2019-01-14T02:33:56.520Z,0.40
2019-01-14T02:36:24.171Z,0.40
2019-01-14T02:38:51.812Z,0.57
2019-01-14T02:41:19.427Z,0.67
2019-01-14T02:43:47.078Z,0.47
2019-01-14T02:46:14.978Z,0.50
2019-01-14T02:48:42.636Z,0.70
2019-01-14T02:51:10.262Z,0.50
2019-01-14T02:53:37.953Z,0.50
2019-01-14T02:56:05.561Z,0.77
2019-01-14T02:58:33.298Z,0.80
2019-01-14T03:01:00.937Z,0.87
2019-01-14T03:03:28.532Z,0.80
2019-01-14T03:05:56.626Z,0.70
2019-01-14T03:08:24.272Z,0.70
2019-01-14T03:10:51.945Z,1.00
2019-01-14T03:13:19.638Z,1.00
2019-01-14T03:15:47.356Z,0.90
2019-01-14T03:18:14.990Z,0.73
2019-01-14T03:20:42.586Z,0.70
2019-01-14T03:23:10.522Z,0.83
2019-01-14T03:25:38.102Z,0.90
2019-01-14T03:28:06.085Z,0.87
2019-01-14T03:30:34.814Z,0.80
2019-01-14T03:33:02.504Z,0.70
2019-01-14T03:35:30.093Z,0.80
2019-01-14T03:37:57.699Z,0.70
2019-01-14T03:40:25.330Z,0.87
2019-01-14T03:42:52.951Z,0.73
2019-01-14T03:45:20.638Z,0.80
2019-01-14T03:47:48.754Z,5.87
2019-01-14T03:50:21.698Z,1.90
2019-01-14T03:52:49.447Z,1.30
2019-01-14T03:55:17.161Z,1.13
2019-01-14T03:57:44.997Z,1.00
2019-01-14T04:00:16.719Z,0.80
2019-01-14T04:02:44.504Z,1.00
2019-01-14T04:05:12.486Z,0.83
2019-01-14T04:07:40.299Z,1.10
2019-01-14T04:10:10.654Z,1.50
2019-01-14T04:12:38.290Z,1.43
2019-01-14T04:15:06.844Z,2.70
2019-01-14T04:17:34.460Z,2.13
2019-01-14T04:20:02.452Z,2.00
2019-01-14T04:22:30.126Z,2.33
2019-01-14T04:24:58.444Z,2.20
2019-01-14T04:27:26.816Z,2.20
2019-01-14T04:29:54.496Z,1.77
2019-01-14T04:32:22.216Z,2.10
2019-01-14T04:34:50.085Z,3.63
2019-01-14T04:37:21.621Z,4.00
2019-01-14T04:39:47.373Z,2.40
2019-01-14T04:42:15.310Z,2.20
2019-01-14T04:44:42.949Z,2.10
2019-01-14T04:47:11.030Z,2.03
2019-01-14T04:49:38.664Z,2.23
2019-01-14T04:52:07.104Z,2.50
2019-01-14T04:54:34.811Z,1.83
2019-01-14T04:57:02.389Z,1.80
2019-01-14T04:59:30.042Z,2.20
2019-01-14T05:01:57.997Z,2.30
2019-01-14T05:04:25.620Z,2.43
2019-01-14T05:06:53.253Z,2.10
2019-01-14T05:09:20.867Z,2.50
2019-01-14T05:11:48.511Z,3.50
2019-01-14T05:14:16.478Z,3.37
2019-01-14T05:16:44.093Z,3.37
2019-01-14T05:19:11.681Z,2.27
2019-01-14T05:21:39.321Z,4.07
2019-01-14T05:24:07.110Z,6.90
2019-01-14T05:26:34.746Z,7.13
2019-01-14T05:29:02.407Z,7.27
2019-01-14T05:31:30.049Z,5.13
2019-01-14T05:33:57.698Z,3.80
2019-01-14T05:36:25.340Z,4.40
2019-01-14T05:38:53.150Z,4.60
2019-01-14T05:41:21.841Z,4.87
2019-01-14T05:43:49.645Z,4.33
2019-01-14T05:46:17.393Z,3.80
2019-01-14T05:48:45.114Z,5.53
2019-01-14T05:51:12.947Z,6.17
2019-01-14T05:53:40.676Z,5.87
2019-01-14T05:56:08.335Z,4.57
2019-01-14T05:58:35.917Z,5.87
2019-01-14T06:01:04.041Z,6.07
2019-01-14T06:03:31.676Z,4.20
2019-01-14T06:05:59.326Z,4.07
2019-01-14T06:08:26.953Z,3.53
2019-01-14T06:10:54.577Z,2.17
2019-01-14T06:13:22.240Z,2.00
2019-01-14T06:15:49.906Z,1.97
2019-01-14T06:18:17.770Z,1.80
2019-01-14T06:20:45.447Z,1.83
2019-01-14T06:23:13.639Z,1.77
2019-01-14T06:25:41.273Z,2.10
2019-01-14T06:28:08.912Z,2.17
2019-01-14T06:30:36.581Z,2.33
2019-01-14T06:33:04.295Z,2.20
2019-01-14T06:35:32.186Z,2.50
2019-01-14T06:37:59.856Z,2.30
2019-01-14T06:40:27.652Z,2.20
2019-01-14T06:42:55.296Z,2.10
2019-01-14T06:45:22.904Z,2.33
2019-01-14T06:47:50.627Z,2.10
2019-01-14T06:50:18.968Z,1.80
2019-01-14T06:52:46.721Z,2.13
2019-01-14T06:55:14.786Z,2.27
2019-01-14T06:57:42.508Z,2.50
2019-01-14T07:00:13.449Z,3.10
2019-01-14T07:02:41.167Z,2.50
2019-01-14T07:05:09.189Z,2.80
2019-01-14T07:07:36.816Z,2.80
2019-01-14T07:10:06.553Z,3.13
2019-01-14T07:12:34.183Z,4.33
2019-01-14T07:15:01.827Z,9.03
2019-01-14T07:17:29.459Z,7.40
2019-01-14T07:19:57.059Z,18.07
2019-01-14T07:22:24.692Z,20.57
2019-01-14T07:24:52.408Z,19.47
2019-01-14T07:27:20.029Z,20.87
2019-01-14T07:29:47.707Z,19.17
2019-01-14T07:32:15.368Z,24.70
2019-01-14T07:34:42.987Z,26.00
2019-01-14T07:37:10.597Z,17.00
2019-01-14T07:39:38.276Z,18.53
2019-01-14T07:42:05.934Z,13.10
2019-01-14T07:44:33.573Z,13.67
2019-01-14T07:47:01.299Z,10.80
2019-01-14T07:49:29.793Z,12.17
2019-01-14T07:51:57.496Z,10.20
2019-01-14T07:54:25.105Z,9.87
2019-01-14T07:56:53.060Z,11.17
2019-01-14T07:59:20.728Z,8.40
2019-01-14T08:01:48.449Z,7.53
2019-01-14T08:04:16.084Z,5.73
2019-01-14T08:06:43.689Z,7.17
2019-01-14T08:09:11.534Z,6.50
2019-01-14T08:11:39.128Z,5.97
2019-01-14T08:14:06.852Z,5.37
2019-01-14T08:16:34.465Z,8.10
2019-01-14T08:19:02.088Z,8.50
2019-01-14T08:21:29.701Z,8.20
2019-01-14T08:23:57.365Z,7.43
2019-01-14T08:26:24.997Z,6.43
2019-01-14T08:28:52.617Z,5.37
2019-01-14T08:31:20.350Z,4.03
2019-01-14T08:33:48.179Z,5.90
2019-01-14T08:36:15.824Z,7.60
2019-01-14T08:38:43.445Z,4.63
2019-01-14T08:41:11.696Z,3.40
2019-01-14T08:43:39.627Z,3.13
2019-01-14T08:46:07.701Z,5.20
2019-01-14T08:48:35.369Z,7.43
2019-01-14T08:51:02.981Z,7.47
2019-01-14T08:53:30.604Z,7.97
2019-01-14T08:55:58.225Z,6.37
2019-01-14T08:58:25.832Z,6.20
2019-01-14T09:00:54.124Z,6.23
2019-01-14T09:03:21.744Z,6.17
2019-01-14T09:05:49.787Z,8.27
2019-01-14T09:08:17.492Z,7.60
2019-01-14T09:10:45.111Z,3.83
2019-01-14T09:13:12.733Z,2.90
2019-01-14T09:15:40.348Z,2.27
2019-01-14T09:18:07.982Z,2.23
2019-01-14T09:20:35.724Z,2.20
2019-01-14T09:23:03.774Z,2.17
2019-01-14T09:25:31.424Z,2.30
2019-01-14T09:27:59.152Z,2.10
2019-01-14T09:30:26.759Z,2.40
2019-01-14T09:32:54.530Z,2.07
2019-01-14T09:35:22.221Z,2.13
2019-01-14T09:37:49.944Z,2.07
2019-01-14T09:40:19.424Z,1.90
2019-01-14T09:42:47.127Z,2.10
2019-01-14T09:45:14.804Z,2.00
2019-01-14T09:47:42.628Z,2.07
2019-01-14T09:50:11.644Z,2.30
2019-01-14T09:52:39.230Z,2.70
2019-01-14T09:55:09.957Z,3.13
2019-01-14T09:57:37.571Z,2.60
2019-01-14T10:00:07.132Z,2.30
2019-01-14T10:02:34.813Z,2.07
2019-01-14T10:05:02.574Z,1.90
2019-01-14T10:07:30.197Z,1.83
2019-01-14T10:09:57.875Z,1.97
2019-01-14T10:12:27.868Z,1.93
2019-01-14T10:14:55.493Z,1.90
2019-01-14T10:17:25.804Z,2.30
2019-01-14T10:19:53.397Z,1.70
2019-01-14T10:22:21.236Z,2.10
2019-01-14T10:24:48.985Z,1.70
2019-01-14T10:27:16.608Z,1.70
2019-01-14T10:29:44.240Z,1.67
2019-01-14T10:32:11.870Z,2.07
2019-01-14T10:34:39.532Z,1.63
2019-01-14T10:37:09.704Z,1.70
2019-01-14T10:39:37.312Z,1.80
2019-01-14T10:42:05.213Z,1.40
2019-01-14T10:44:32.885Z,1.93
2019-01-14T10:47:00.532Z,2.27
2019-01-14T10:49:28.160Z,2.03
2019-01-14T10:51:55.923Z,2.13
2019-01-14T10:54:23.699Z,2.03
2019-01-14T10:56:51.350Z,2.33
2019-01-14T10:59:19.060Z,2.27
2019-01-14T11:01:46.715Z,2.20
2019-01-14T11:04:14.323Z,2.10
2019-01-14T11:06:41.952Z,2.20
2019-01-14T11:09:09.594Z,2.30
2019-01-14T11:11:37.209Z,2.10
2019-01-14T11:14:04.809Z,2.47
2019-01-14T11:16:32.478Z,2.80
2019-01-14T11:19:00.135Z,3.00
2019-01-14T11:21:27.807Z,3.20
2019-01-14T11:23:55.646Z,3.00
2019-01-14T11:26:23.397Z,3.17
2019-01-14T11:28:51.145Z,3.10
2019-01-14T11:31:18.811Z,3.20
2019-01-14T11:33:46.474Z,2.57
2019-01-14T11:36:14.189Z,2.90
2019-01-14T11:38:47.637Z,3.23
2019-01-14T11:41:15.343Z,3.60
2019-01-14T11:43:42.960Z,3.60
2019-01-14T11:46:10.658Z,3.20
2019-01-14T11:48:39.555Z,2.97
2019-01-14T11:51:07.244Z,3.47
2019-01-14T11:53:35.757Z,3.00
2019-01-14T11:56:03.779Z,2.67
2019-01-14T11:58:32.329Z,2.90
2019-01-14T12:00:59.929Z,2.70
2019-01-14T12:03:27.606Z,2.87
2019-01-14T12:05:55.193Z,2.47
2019-01-14T12:08:23.275Z,2.77
2019-01-14T12:10:51.052Z,2.30
2019-01-14T12:13:18.766Z,2.37
2019-01-14T12:15:46.363Z,1.97
2019-01-14T12:18:14.057Z,2.17
2019-01-14T12:20:41.710Z,2.43
2019-01-14T12:23:09.312Z,2.10
2019-01-14T12:25:36.933Z,2.30
2019-01-14T12:28:04.544Z,2.40
2019-01-14T12:30:37.196Z,2.40
2019-01-14T12:33:05.166Z,2.20
2019-01-14T12:35:32.799Z,2.37
2019-01-14T12:38:00.440Z,2.70
2019-01-14T12:40:28.104Z,2.50
2019-01-14T12:42:55.737Z,2.43
2019-01-14T12:45:23.470Z,2.50
2019-01-14T12:47:51.343Z,2.57
2019-01-14T12:50:19.300Z,2.70
2019-01-14T12:52:46.880Z,2.47
2019-01-14T12:55:14.712Z,2.70
2019-01-14T12:57:42.314Z,2.50
2019-01-14T13:00:15.190Z,2.63
2019-01-14T13:02:42.802Z,2.57
2019-01-14T13:05:11.180Z,2.30
2019-01-14T13:07:38.842Z,2.33
2019-01-14T13:10:07.217Z,1.90
2019-01-14T13:12:34.896Z,2.30
2019-01-14T13:15:03.528Z,2.03
2019-01-14T13:17:31.206Z,2.20
2019-01-14T13:19:58.813Z,2.27
2019-01-14T13:22:26.457Z,2.00
2019-01-14T13:24:54.108Z,1.90
2019-01-14T13:27:21.984Z,1.80
2019-01-14T13:29:49.636Z,1.63
2019-01-14T13:32:17.345Z,2.00
2019-01-14T13:34:44.994Z,1.70
2019-01-14T13:37:12.713Z,2.27
2019-01-14T13:39:40.309Z,2.00
2019-01-14T13:42:07.977Z,1.80
2019-01-14T13:44:35.736Z,2.53
2019-01-14T13:47:03.360Z,1.83
2019-01-14T13:49:31.298Z,1.90
2019-01-14T13:51:58.929Z,1.93
2019-01-14T13:54:26.643Z,2.10
2019-01-14T13:56:54.289Z,2.10
2019-01-14T13:59:22.004Z,1.90
2019-01-14T14:01:49.736Z,2.10
2019-01-14T14:04:17.356Z,2.07
2019-01-14T14:06:45.652Z,2.17
2019-01-14T14:09:13.354Z,2.20
2019-01-14T14:11:41.028Z,2.20
2019-01-14T14:14:08.664Z,1.97
2019-01-14T14:16:36.362Z,2.23
2019-01-14T14:19:04.330Z,2.60
2019-01-14T14:21:31.986Z,2.20
2019-01-14T14:23:59.910Z,2.10
2019-01-14T14:26:27.509Z,2.20
2019-01-14T14:28:55.345Z,2.13
2019-01-14T14:31:22.974Z,2.10
2019-01-14T14:33:50.728Z,2.10
2019-01-14T14:36:18.381Z,2.00
2019-01-14T14:38:45.992Z,2.00
2019-01-14T14:41:15.593Z,2.10
2019-01-14T14:43:43.140Z,1.90
2019-01-14T14:46:10.784Z,2.00
2019-01-14T14:48:38.418Z,2.00
2019-01-14T14:51:06.825Z,2.07
2019-01-14T14:53:34.466Z,2.00
2019-01-14T14:56:02.078Z,1.90
2019-01-14T14:58:30.423Z,2.00
2019-01-14T15:00:59.816Z,2.37
2019-01-14T15:03:27.625Z,1.90
2019-01-14T15:05:55.280Z,2.23
2019-01-14T15:08:23.229Z,2.07
2019-01-14T15:10:50.996Z,2.10
2019-01-14T15:13:18.642Z,2.50
2019-01-14T15:15:46.319Z,2.17
2019-01-14T15:18:14.037Z,2.27
2019-01-14T15:20:41.664Z,2.23
2019-01-14T15:23:09.397Z,2.40
2019-01-14T15:25:37.212Z,2.20
2019-01-14T15:28:04.882Z,2.30
2019-01-14T15:30:32.860Z,2.20
2019-01-14T15:33:00.506Z,2.43
2019-01-14T15:35:28.252Z,2.47
2019-01-14T15:37:55.916Z,2.37
2019-01-14T15:40:24.056Z,2.50
2019-01-14T15:42:51.849Z,3.70
2019-01-14T15:45:20.481Z,2.20
2019-01-14T15:47:48.247Z,3.30
2019-01-14T15:50:16.516Z,2.70
2019-01-14T15:52:44.185Z,2.53
2019-01-14T15:55:14.772Z,2.67
2019-01-14T15:57:42.568Z,2.17
2019-01-14T16:00:12.348Z,2.80
2019-01-14T16:02:40.300Z,2.73
2019-01-14T16:05:08.013Z,2.70
2019-01-14T16:07:35.711Z,2.60
2019-01-14T16:10:10.590Z,2.47
2019-01-14T16:12:34.169Z,2.80
2019-01-14T16:15:02.007Z,2.40
2019-01-14T16:17:29.794Z,2.90
2019-01-14T16:19:57.777Z,3.17
2019-01-14T16:22:25.501Z,3.03
2019-01-14T16:24:53.340Z,2.60
2019-01-14T16:27:21.103Z,2.80
2019-01-14T16:29:48.756Z,3.20
2019-01-14T16:32:16.403Z,2.83
2019-01-14T16:34:44.109Z,2.80
2019-01-14T16:37:11.708Z,2.77
2019-01-14T16:39:39.373Z,2.67
2019-01-14T16:42:07.124Z,2.87
2019-01-14T16:44:34.790Z,2.93
2019-01-14T16:47:02.485Z,2.87
2019-01-14T16:49:31.405Z,2.60
2019-01-14T16:51:59.117Z,2.73
2019-01-14T16:54:26.825Z,2.60
2019-01-14T16:56:54.583Z,4.43
2019-01-14T16:59:22.447Z,4.20
2019-01-14T17:01:50.133Z,2.90
2019-01-14T17:04:17.884Z,1.80
2019-01-14T17:06:45.524Z,1.13
2019-01-14T17:09:13.182Z,0.90
2019-01-14T17:11:41.169Z,0.90
2019-01-14T17:14:08.737Z,1.00
2019-01-14T17:16:37.462Z,0.80
2019-01-14T17:19:05.180Z,1.00
2019-01-14T17:21:32.905Z,1.07
2019-01-14T17:24:00.544Z,1.00
2019-01-14T17:26:28.319Z,1.00
2019-01-14T17:28:56.152Z,1.00
2019-01-14T17:31:23.902Z,1.00
2019-01-14T17:33:51.661Z,1.30
2019-01-14T17:36:19.402Z,1.27
2019-01-14T17:38:47.122Z,1.27
2019-01-14T17:41:14.925Z,1.30
2019-01-14T17:43:45.292Z,1.27
2019-01-14T17:46:13.124Z,1.40
2019-01-14T17:48:40.810Z,1.30
2019-01-14T17:51:08.466Z,1.80
2019-01-14T17:53:36.201Z,2.70
2019-01-14T17:56:03.840Z,3.60
2019-01-14T17:58:31.526Z,4.17
2019-01-14T18:00:59.211Z,3.67
2019-01-14T18:03:26.876Z,3.90
2019-01-14T18:05:54.717Z,7.13
2019-01-14T18:08:22.539Z,5.90
2019-01-14T18:10:50.172Z,4.87
2019-01-14T18:13:17.835Z,4.50
2019-01-14T18:15:45.525Z,6.20
2019-01-14T18:18:13.337Z,6.17
2019-01-14T18:20:40.988Z,6.30
2019-01-14T18:23:08.598Z,6.57
2019-01-14T18:25:37.608Z,5.27
2019-01-14T18:28:06.159Z,7.33
2019-01-14T18:30:34.161Z,4.00
2019-01-14T18:33:01.826Z,3.83
2019-01-14T18:35:29.481Z,4.10
2019-01-14T18:37:57.193Z,3.93
2019-01-14T18:40:24.894Z,6.07
2019-01-14T18:42:52.529Z,6.90
2019-01-14T18:45:20.252Z,7.23
2019-01-14T18:47:48.028Z,5.47
2019-01-14T18:50:25.868Z,5.63
2019-01-14T18:52:53.644Z,5.07
2019-01-14T18:55:21.673Z,6.13
2019-01-14T18:57:49.333Z,8.90
2019-01-14T19:00:19.299Z,11.77
2019-01-14T19:02:47.088Z,18.40
2019-01-14T19:05:14.928Z,13.67
2019-01-14T19:07:42.551Z,11.43
2019-01-14T19:10:10.796Z,9.80
2019-01-14T19:12:38.704Z,12.30
2019-01-14T19:15:08.887Z,10.77
2019-01-14T19:17:37.615Z,9.40
2019-01-14T19:20:08.309Z,10.30
2019-01-14T19:22:37.297Z,10.17
2019-01-14T19:25:05.589Z,10.20
2019-01-14T19:27:33.267Z,8.17
2019-01-14T19:30:01.128Z,7.07
2019-01-14T19:32:29.004Z,4.90
2019-01-14T19:34:56.656Z,3.23
2019-01-14T19:37:24.440Z,3.33
2019-01-14T19:39:53.484Z,3.20
2019-01-14T19:42:21.146Z,4.17
2019-01-14T19:44:48.752Z,3.70
2019-01-14T19:47:16.406Z,5.03
2019-01-14T19:49:44.030Z,3.87
2019-01-14T19:52:11.668Z,3.70
2019-01-14T19:54:39.363Z,8.40
2019-01-14T19:57:07.012Z,3.20
2019-01-14T19:59:34.657Z,4.70
2019-01-14T20:02:02.308Z,3.23
2019-01-14T20:04:30.090Z,8.80
2019-01-14T20:06:57.757Z,7.90
2019-01-14T20:09:26.357Z,6.73
2019-01-14T20:11:54.049Z,6.83
2019-01-14T20:14:21.736Z,6.33
2019-01-14T20:16:49.626Z,6.17
2019-01-14T20:19:17.389Z,5.80
2019-01-14T20:21:44.988Z,6.23
2019-01-14T20:24:20.473Z,6.70
2019-01-14T20:26:48.452Z,5.60
2019-01-14T20:29:16.106Z,7.63
2019-01-14T20:31:43.721Z,6.60
2019-01-14T20:34:11.413Z,6.63
2019-01-14T20:36:39.044Z,6.20
2019-01-14T20:39:08.741Z,5.00
2019-01-14T20:41:36.491Z,5.37
2019-01-14T20:46:43.273Z,5.10
2019-01-14T20:49:10.916Z,4.20
2019-01-14T20:51:38.592Z,7.27
2019-01-14T20:54:06.223Z,5.07
2019-01-14T20:56:34.035Z,4.90
2019-01-14T20:59:01.720Z,3.70
2019-01-14T21:01:29.443Z,3.70
2019-01-14T21:03:57.386Z,4.07
2019-01-14T21:06:25.468Z,3.10
2019-01-14T21:08:53.172Z,3.50
2019-01-14T21:11:24.082Z,3.07
2019-01-14T21:13:50.537Z,3.50
2019-01-14T21:16:18.232Z,4.03
2019-01-14T21:18:46.019Z,3.77
2019-01-14T21:21:13.949Z,3.20
2019-01-14T21:23:41.688Z,4.23
2019-01-14T21:26:09.466Z,3.80
2019-01-14T21:28:37.220Z,3.30
2019-01-14T21:31:04.930Z,3.83
2019-01-14T21:33:33.825Z,4.23
2019-01-14T21:36:01.548Z,4.80
2019-01-14T21:38:29.366Z,5.70
2019-01-14T21:40:57.279Z,5.53
2019-01-14T21:43:25.067Z,5.23
2019-01-14T21:45:53.005Z,6.13
2019-01-14T21:48:20.707Z,6.23
2019-01-14T21:50:48.456Z,6.90
2019-01-14T21:53:16.392Z,6.87
2019-01-14T21:55:44.130Z,6.50
2019-01-14T21:58:11.856Z,6.00
2019-01-14T22:00:39.581Z,6.03
2019-01-14T22:03:07.298Z,6.00
2019-01-14T22:05:35.015Z,6.13
2019-01-14T22:08:02.793Z,6.17
2019-01-14T22:10:30.662Z,6.20
2019-01-14T22:12:58.439Z,5.93
2019-01-14T22:15:26.277Z,6.40
2019-01-14T22:17:54.062Z,5.80
2019-01-14T22:20:31.159Z,6.57
2019-01-14T22:22:54.949Z,6.00
2019-01-14T22:25:22.787Z,5.03
2019-01-14T22:27:50.529Z,3.80
2019-01-14T22:30:20.691Z,2.53
2019-01-14T22:32:48.470Z,2.40
2019-01-14T22:35:17.436Z,2.40
2019-01-14T22:37:46.791Z,2.23
2019-01-14T22:40:15.349Z,2.80
2019-01-14T22:42:43.421Z,4.70
2019-01-14T22:45:11.957Z,10.47
2019-01-14T22:47:39.758Z,6.33
2019-01-14T22:50:10.079Z,5.80
2019-01-14T22:52:37.808Z,5.03
2019-01-14T22:55:05.902Z,5.60
2019-01-14T22:57:33.577Z,5.50
2019-01-14T23:00:01.474Z,5.37
2019-01-14T23:02:31.908Z,4.57
2019-01-14T23:04:59.539Z,5.13
2019-01-14T23:07:27.553Z,5.40
2019-01-14T23:09:55.271Z,6.30
2019-01-14T23:12:23.300Z,5.33
2019-01-14T23:14:51.066Z,5.70
2019-01-14T23:17:18.767Z,5.70
2019-01-14T23:19:46.440Z,5.90
2019-01-14T23:22:14.105Z,5.67
2019-01-14T23:24:41.902Z,6.03
2019-01-14T23:27:12.233Z,6.30
2019-01-14T23:29:40.357Z,5.97
2019-01-14T23:32:08.468Z,6.10
2019-01-14T23:34:36.294Z,5.50
2019-01-14T23:37:04.440Z,5.47
2019-01-14T23:39:33.877Z,5.43
2019-01-14T23:42:02.277Z,4.13
2019-01-14T23:44:30.566Z,3.10
2019-01-14T23:46:58.923Z,3.50
2019-01-14T23:49:26.546Z,3.53
2019-01-14T23:51:54.345Z,3.10
2019-01-14T23:54:22.088Z,3.33
2019-01-14T23:56:49.729Z,3.20
2019-01-14T23:59:17.430Z,3.47
